Sylvan Lake, Michigan
Current Conditions -  °F | °C
As of 6:53 PM on Monday 20 Oct 2014 (Local Time) from KPTK Reporting Station
Overcast Overcast  
Wind Chill: 53°   Ceiling: 6000
Heat Index: 53°   Visibility: 10mi
Dew Point: 48°   Wind: 3mph
Humidity: 83%   Direction: 290°WNW
Pressure: 29.8"   Gusts: NA
Location:  42.6112°N, 83.3377°W
Report Text: KPTK 202253Z 29003KT 10SM FEW028 BKN060 OVC080 12/09 A2980 RMK AO2 SLP094 T01170089
Loading
Personal Weather Stations






























Interactive Weather Map New forecast layout! Learn more

10-Day Weather Forecast

Advertisements
Track Severe Weather on mobile